New Listings | Alphabetical Listings | Market Rank Listings | PPM Schedule | Arbitrends Schedule | Menu

Nielsen Audio Ratings

Market Rank: 1-50 | 51-100 | 101-150 | 151-200 | 201-250 | 251-300

Rank Market Posted Survey 12+
Population
107 Chattanooga TN 08-21-14 4S 466,700
105 Huntsville AL 08-21-14 4S 476,100
126 Jackson MS 08-21-14 4S 414,400
99 Madison WI 08-21-14 4S 508,500
133 Shreveport LA 08-21-14 4S 353,400
90 Colorado Springs CO 08-20-14 4S 550,200
73 Des Moines IA 08-20-14 4S 682,600
97 Mobile AL 08-20-14 4S 515,500
94 Spokane WA 08-20-14 4S 532,100
101 Wichita KS 08-20-14 4S 499,700
87 Columbia SC 08-19-14 4S 573,200
85 Greenville-New Bern NC 08-19-14 4S 585,200
84 Little Rock AR 08-19-14 4S 586,600
92 Springfield MA 08-19-14 4S 544,100
96 Toledo OH 08-19-14 4S 516,100
80 Akron OH 08-18-14 4S 605,700
79 Charleston SC 08-18-14 4S 606,500
83 Monterey-Salinas CA 08-18-14 4S 589,800
89 Syracuse 08-18-14 4S 567,000
68 Albuquerque NM 08-15-14 4S 749,900
74 El Paso TX 08-15-14 4S 681,400
82 Harrisburg-Lebanon-Carlisle PA 08-15-14 4S 595,500
106 Johnson City-Kingsport TN 08-15-14 4S 471,400
111 York PA 08-15-14 4S 463,000
77 Bakersfield CA 08-14-14 4S 630,200
63 Honolulu HI 08-14-14 4S 843,500
71 Knoxville TN 08-14-14 4S 699,000
75 Omaha-Council Bluffs NE 08-14-14 4S 677,000
66 Tulsa OK 08-14-14 4S 787,800

65 Albany-Schenectady-Troy NY 08-13-14 4S 805,200
70 Allentown-Bethlehem PA 08-13-14 4S 714,800
64 Dayton OH 08-13-14 4S 836,300
67 Fresno CA 08-13-14 4S 777,200
69 Grand Rapids MI 08-13-14 4S 745,200
72 Wilkes Barre-Scranton PA 08-13-14 4S 696,900
60 Birmingham AL 08-12-14 4S 908,100
56 Buffalo-Niagara Falls NY 08-12-14 4S 983,900
59 Greenville-Spartanburg SC 08-12-14 4S 913,300
55 Richmond VA 08-12-14 4S 1,003,700
58 Rochester NY 08-12-14 4S 963,800
62 Tucson AZ 08-12-14 4S 850,200
81 Baton Rouge LA 08-11-14 4S 604,400
54 Louisville KY 08-11-14 4S 1,009,400
53 Monmouth-Ocean NJ 08-11-14 4S 1,032,700
47 New Orleans LA 08-11-14 4S 1,222,200
49 Oklahoma City OK 08-11-14 4S 1,194,300
15 Puerto Rico 08-11-14 4S 3,128,300
35 Austin TX 08-07-14 PPM 1,586,300
274 Beckley WV 08-07-14 2A 67,800
263 Bismarck ND 08-07-14 2A 99,700
267 Bluefield WV 08-07-14 2A 92,500
46 Greensboro-Winston-Salem-High Point 08-07-14 PPM 1,239,100
254 Harrisonburg VA 08-07-14 2A 113,200
52 Hartford-New Britain CT 08-07-14 PPM 1,077,600
40 Indianapolis IN 08-07-14 PPM 1,468,300
270 Jackson TN 08-07-14 2A 83,400
50 Jacksonville FL 08-07-14 PPM 1,184,500
226 Jonesboro AR 08-07-14 2A 156,000
51 Memphis TN 08-07-14 PPM 1,122,600

38 Milwaukee-Racine WI 08-07-14 PPM 1,489,100
45 Nashville TN 08-07-14 PPM 1,339,200
43 Norfolk-VA Beach-Newport News VA 08-07-14 PPM 1,390,200
44 Providence RI 08-07-14 PPM 1,388,700
42 Raleigh-Durham NC 08-07-14 PPM 1,430,100
255 Rapid City SD 08-07-14 2A 111,000
265 San Angelo TX 08-07-14 2A 96,700
262 Sioux City IA 08-07-14 2A 100,700
48 West Palm Beach FL 08-07-14 PPM 1,200,300
250 Wichita Falls TX 08-07-14 2A 119,000
237 Abilene TX 08-06-14 2A 140,800
241 Billings MT 08-06-14 2A 130,200
24 Charlotte-Gastonia NC 08-06-14 PPM 2,108,900
30 Cincinnati OH 08-06-14 PPM 1,781,400
31 Cleveland OH 08-06-14 PPM 1,763,800
233 Columbia MO 08-06-14 2A 148,100
37 Columbus OH 08-06-14 PPM 1,567,700
236 Eau Claire WI 08-06-14 2A 141,400
251 Grand Island-Kearney-Hastings NE 08-06-14 2A 117,300
248 Grand Junction CO 08-06-14 2A 125,700
234 Joplin MO 08-06-14 2A 142,900
34 Kansas City MO 08-06-14 PPM 1,668,100
219 La Crosse WI 08-06-14 2A 164,200
229 Lafayette IN 08-06-14 2S 154,800
32 Las Vegas NV 08-06-14 PPM 1,700,200
243 Monroe LA 08-06-14 2A 129,400
33 Orlando FL 08-06-14 PPM 1,676,600
232 Panama City FL 08-06-14 2A 148,500
244 Parkersburg-Marietta WV 08-06-14 2A 127,900
25 Pittsburgh PA 08-06-14 PPM 2,008,400

23 Portland OR 08-06-14 PPM 2,182,400
224 Rochester MN 08-06-14 2A 158,400
27 Sacramento CA 08-06-14 PPM 1,913,000
29 Salt Lake City UT 08-06-14 PPM 1,791,400
28 San Antonio TX 08-06-14 PPM 1,897,800
245 Wheeling WV 08-06-14 2S 127,200
21 Baltimore MD 08-05-14 PPM 2,373,000
211 Bend OR 08-05-14 2A 176,500
10 Boston MA 08-05-14 PPM 4,145,900
204 Cedar Rapids IA 08-05-14 2S 182,900
210 Champaign IL 08-05-14 2A 177,800
200 Chico CA 08-05-14 2A 194,000
266 Decatur IL 08-05-14 2A 93,200
19 Denver-Boulder CO 08-05-14 PPM 2,486,500
12 Detroit MI 08-05-14 PPM 3,790,400
205 Duluth-Superior MN-WI 08-05-14 2S 179,400
203 Fargo-Moorhead ND-MN 08-05-14 2S 188,100
213 Florence SC 08-05-14 2A 174,000
268 Grand Forks ND 08-05-14 2A 85,500
191 Laredo TX 08-05-14 2A 206,300
208 Medford-Ashland OR 08-05-14 2A 178,700
11 Miami-Fort Lauderdale FL 08-05-14 PPM 3,858,000
16 Minneapolis-St. Paul MN 08-05-14 PPM 2,827,200
14 Phoenix AZ 08-05-14 PPM 3,347,700
17 San Diego CA 08-05-14 PPM 2,729,200
13 Seattle-Tacoma WA 08-05-14 PPM 3,585,700
22 St. Louis MO 08-05-14 PPM 2,318,800
18 Tampa-St. Petersburg FL 08-05-14 PPM 2,501,200
7 Washington DC 08-05-14 PPM 4,720,300
276 Waterloo-Cedar Falls IA 08-05-14 2A

212 Winchester VA 08-05-14 2A 174,500
195 Yakima WA 08-05-14 2A 200,400
167 Amarillo TX 08-04-14 2A 251,200
9 Atlanta GA 08-04-14 PPM 4,487,600
193 Bryan-College Station TX 08-04-14 2A 203,700
201 Cape Cod MA 08-04-14 2A 193,100
3 Chicago IL 08-04-14 PPM 7,910,200
178 Columbus GA 08-04-14 2S 232,300
5 Dallas-Ft. Worth TX 08-04-14 PPM 5,559,300
192 Frederick MD 08-04-14 2C 206,200
6 Houston-Galveston TX 08-04-14 PPM 5,253,500
2 Los Angeles CA 08-04-14 PPM 11,179,600
173 Lubbock TX 08-04-14 2S 241,400
41 Middlesex-Somerset-Union 08-04-14 PPM 1,454,800
20 Nassau-Suffolk NY 08-04-14 PPM 2,454,700
1 New York NY 08-04-14 PPM 16,033,100
170 Odessa-Midland TX 08-04-14 2A 246,800
8 Philadelphia PA 08-04-14 PPM 4,547,300
227 Redding CA 08-04-14 2A 155,100
26 Riverside-San Bernardino CA 08-04-14 PPM 1,997,700
4 San Francisco CA 08-04-14 PPM 6,377,900
36 San Jose CA 08-04-14 PPM 1,574,200
264 Sheboygan WI 08-04-14 2A 97,600
209 Terre Haute IN 08-04-14 2S 178,100
182 Tri-Cities WA 08-04-14 2A 222,900
194 Waco TX 08-04-14 2A 200,400
169 Anchorage AK 08-01-14 2S 250,600
185 Binghamton NY 08-01-14 2S 214,700
187 Charleston WV 08-01-14 2S 214,600
174 Erie PA 08-01-14 2S 240,300

150 Eugene-Springfield OR 08-01-14 2S 313,000
163 Evansville IN 08-01-14 2S 266,900
155 Flagstaff-Prescott AZ 08-01-14 2A 306,200
162 Huntington-Ashland WV 08-01-14 2S 269,500
132 Macon GA 08-01-14 2S 370,600
171 Morgantown-Clarksburg-Fairmont WV 08-01-14 2A 245,300
159 Rockford IL 08-01-14 2S 288,100
161 Tallahassee FL 08-01-14 2S 278,200
249 Valdosta GA 08-01-14 2A 122,600
175 Wausau-Stevens Point WI (Central Wi 08-01-14 2A 239,000
240 Albany GA 07-31-14 2A 136,200
153 Ann Arbor MI 07-31-14 2C 308,800
142 Beaumont-Port Arthur TX 07-31-14 2A 327,300
231 Bloomington IL 07-31-14 2S 148,500
188 Dothan AL 07-31-14 2A 212,600
141 Killeen-Temple TX 07-31-14 2A 332,800
242 LaSalle-Peru IL 07-31-14 2A 130,100
221 Lake Charles LA 07-31-14 2A 162,900
154 Montgomery AL 07-31-14 2S 308,700
180 New Bedford-Fall River MA 07-31-14 2C 228,000
156 Peoria IL 07-31-14 2S 306,200
151 Quad Cities IL 07-31-14 2S 311,700
140 Salisbury-Ocean City MD 07-31-14 2S 335,400
152 Savannah GA 07-31-14 2S 311,100
137 Springfield MO 07-31-14 2S 341,400
139 Appleton-Oshkosh WI 07-30-14 2S 339,800
110 Corpus Christi TX 07-30-14 2S 465,600
129 Fayetteville (North West Arkansas) 07-30-14 2A 387,600
130 Fayetteville NC 07-30-14 2S 384,800
135 Flint MI 07-30-14 2S 349,100
186 Green Bay WI 07-30-14 2S 214,700
127 Lansing-East Lansing MI 07-30-14 2S 402,800
134 Reading PA 07-30-14 2A 353,300
125 Reno NV 07-30-14 2S 416,500
275 Saginaw-Bay City-Midland MI 07-30-14 2A
252 Texarkana TX-AR 07-30-14 2A 115,500
144 Tyler-Longview TX 07-30-14 2S 325,200
131 Youngstown-Warren OH 07-30-14 2S 379,500
124 Bridgeport CT 07-29-14 2S 417,500
271 Cheyenne WY 07-29-14 2A 80,800
117 Fort Collins-Greeley CO 07-29-14 2A 437,600
118 Modesto CA 07-29-14 2S 433,300
119 Morristown NJ 07-29-14 2C 431,500
121 New Haven CT 07-29-14 2S 429,200
120 Oxnard-Ventura CA 07-29-14 2S 430,700
138 Palm Springs CA 07-29-14 2S 341,000
172 San Luis Obispo CA 07-29-14 2A 244,000
206 Santa Barbara CA 07-29-14 2A 179,100
202 Santa Maria-Lompoc CA 07-29-14 2A 191,100
122 Santa Rosa CA 07-29-14 2S 428,000

181 South Bend IN 07-29-14 2S 223,900
114 Victor Valley 07-29-14 2S 442,200
146 Atlantic City NJ 07-28-14 2S 320,700
109 Augusta GA 07-28-14 2S 466,000
246 Florence-Muscle Shoals AL 07-28-14 2A 126,900
113 Fort Wayne IN 07-28-14 2S 445,400
102 Lexington-Fayette KY 07-28-14 2S 492,600
103 Melbourne-Titusville-Cocoa FL 07-28-14 2S 487,800
215 Muncie-Marion IN 07-28-14 2A 172,000
115 Roanoke-Lynchburg VA 07-28-14 2S 440,200
247 Sussex NJ 07-28-14 2A 126,700
149 Trenton NJ 07-28-14 2S 317,000
116 Worcester MA 07-28-14 2S 438,400
100 Boise ID 07-25-14 2S 506,300
93 Daytona Beach FL 07-25-14 2S 532,400
98 Fort Pierce-Stuart FL 07-25-14 2S 508,700
184 Fort Walton Beach FL 07-25-14 2A 219,100
95 Lakeland-Winter Haven FL 07-25-14 2S 528,800
128 Pensacola FL 07-25-14 2S 401,000
238 Pueblo CO 07-25-14 2S 136,700
189 Salina-Manhattan KS 07-25-14 2A 209,400
199 Topeka KS 07-25-14 2S 196,500
230 Twin Falls (Sun Valley) ID 07-25-14 2A 151,700
88 Gainesville-Ocala FL 07-24-14 2S 569,500
269 Hot Springs AR 07-24-14 2A 84,200
86 Stockton CA 07-24-14 2S 580,700
136 Canton OH 07-23-14 2S 346,400
165 Hagerstown-Chambersburg MD 07-23-14 2A 257,100
112 Lancaster PA 07-23-14 2S 445,700
168 Lincoln NE 07-23-14 2S 250,800

157 Myrtle Beach SC 07-23-14 2A 304,700
177 New London CT 07-23-14 2A 238,100
78 Wilmington DE 07-23-14 2S 613,000
207 Las Cruces NM 07-22-14 2A 179,000
179 Merced CA 07-22-14 2A 229,800
104 Visalia-Tulare-Hanford CA 07-22-14 2S 487,000
260 Williamsport PA 07-22-14 2A 102,200
253 Battle Creek MI 07-21-14 2A 113,900
196 Danbury CT 07-21-14 2A 198,500
61 Ft. Myers-Naples-Marco Island FL 07-21-14 2S 879,600
160 Ft. Smith AR 07-21-14 2A 281,600
183 Kalamazoo MI 07-21-14 2S 220,100
228 Lima OH 07-21-14 2A 154,900
57 McAllen-Brownsville TX 07-21-14 2S 975,500
235 Muskegon MI 07-21-14 2A 142,800
76 Sarasota-Bradenton FL 07-21-14 2S 652,100
147 Stamford-Norwalk CT 07-21-14 2A 318,300
258 Augusta-Waterville ME 07-18-14 2A 106,300
217 Bangor ME 07-18-14 2S 168,300
143 Burlington-Plattsburgh VT-NY 07-18-14 2S 326,300
176 Concord (Lakes Region) 07-18-14 2S 238,300
39 Hudson Valley 07-18-14 2S 1,487,300
225 Lebanon-Hanover-White River Junctio 07-18-14 2C 157,900
198 Manchester NH 07-18-14 2S 198,300
257 Montpelier-Barre-St. Johnsbury VT 07-18-14 2S 107,700
91 Portland ME 07-18-14 2S 546,700
123 Portsmouth-Dover NH 07-18-14 2S 418,800
164 Poughkeepsie NY 07-18-14 2A 258,600
166 Utica-Rome NY 07-18-14 2S 256,500
158 Asheville NC 07-17-14 2S 289,300

148 Fredericksburg VA 07-17-14 2S 318,200
222 Olean NY 07-17-14 2A 161,200
190 Tupelo MS 07-17-14 2A 206,700
214 Tuscaloosa AL 07-17-14 2A 172,800
145 Biloxi-Gulfport-Pascagoula MS 07-16-14 2S 322,200
107 Lafayette LA 07-16-14 2S 466,700
216 Laurel-Hattiesburg MS 07-16-14 2A 171,600
273 Casper WY 01-27-14 2A 68,100
239 Lufkin-Nacogdoches TX 01-16-14 2A 136,300
261 Watertown NY 01-06-14 2A 101,400
220 Alexandria LA 07-17-13 2A 163,700
259 Lawton OK 01-28-13 2A 105,700
218 St. Cloud MN 01-24-13 2A 167,900
197 Traverse City-Petoskey MI 01-23-13 2A 198,500
256 Altoona PA 08-07-12 2S 109,600
272 Brunswick GA 08-01-12 2A 69,000
223 Elmira-Corning NY 01-15-10 2A 161,100

Survey Key:
PPM - Portable People Meter
4S - Diary Standard Continuous Measurement
2S - Diary Standard Measurement
2C - Diary Condensed Measurement
2A - Diary 2-book Average

Ratings profiles are Copyright © 2014 Nielsen Audio. May not be quoted or reproduced without the prior written permission of Nielsen Audio.

Return to Menu
Copyright © 1989-2014 RADIO ONLINE ®

Sponsored Links
Radio Station Data For Less
Radio station data for all of the rated markets. Top 400 Metros-Over 12,000 AM/FM/HD $299 includes 1 year free updates.
The Morning Mouth
Click for a special offer from the Morning Mouth. 15 issues for the price of 12!
Donna Reed, Voice Talent
The premier voiceover talent. Imaging, liners, promos, voicetracking. ISDN studios.
Radio Station Data For Less
Radio station data for all of the rated markets. Top 400 Metros-Over 12,000 AM/FM/HD $299 includes 1 year free updates.
The Morning Mouth
Click for a special offer from the Morning Mouth. 15 issues for the price of 12!